createdAt,value
2017-04-18T00:01:03.636Z,936.83
2017-04-18T00:02:16.348Z,936.82
2017-04-18T00:03:29.113Z,936.9
2017-04-18T00:04:40.882Z,936.9
2017-04-18T00:05:53.139Z,936.92
2017-04-18T00:07:05.586Z,936.89
2017-04-18T00:08:18.310Z,936.85
2017-04-18T00:09:31.043Z,936.87
2017-04-18T00:10:43.865Z,936.85
2017-04-18T00:11:56.117Z,936.85
2017-04-18T00:13:08.830Z,936.87
2017-04-18T00:14:21.559Z,936.9
2017-04-18T00:15:33.825Z,936.89
2017-04-18T00:16:46.547Z,936.92
2017-04-18T00:17:59.276Z,936.87
2017-04-18T00:19:12.034Z,936.89
2017-04-18T00:20:24.777Z,936.9
2017-04-18T00:21:37.514Z,936.85
2017-04-18T00:22:50.264Z,936.93
2017-04-18T00:24:02.991Z,936.87
2017-04-18T00:25:15.993Z,936.94
2017-04-18T00:26:27.968Z,936.96
2017-04-18T00:27:40.693Z,936.94
2017-04-18T00:28:52.929Z,936.92
2017-04-18T00:30:05.867Z,936.88
2017-04-18T00:31:18.603Z,936.88
2017-04-18T00:32:31.339Z,936.84
2017-04-18T00:33:44.288Z,936.88
2017-04-18T00:34:57.033Z,936.89
2017-04-18T00:36:09.776Z,936.9
2017-04-18T00:37:22.003Z,936.9
2017-04-18T00:38:34.706Z,936.91
2017-04-18T00:39:47.549Z,936.89
2017-04-18T00:41:00.279Z,936.81
2017-04-18T00:43:40.103Z,936.9
2017-04-18T00:44:52.364Z,936.9
2017-04-18T00:46:05.115Z,936.93
2017-04-18T00:47:17.848Z,936.93
2017-04-18T00:48:30.133Z,936.99
2017-04-18T00:49:42.876Z,936.99
2017-04-18T00:50:54.640Z,936.99
2017-04-18T00:52:07.382Z,936.98
2017-04-18T00:53:19.634Z,937
2017-04-18T00:54:32.375Z,936.97
2017-04-18T00:55:45.105Z,936.95
2017-04-18T00:56:57.979Z,937.02
2017-04-18T00:58:10.737Z,937.03
2017-04-18T00:59:23.518Z,936.99
2017-04-18T01:00:36.256Z,937.01
2017-04-18T01:01:48.993Z,937.03
2017-04-18T01:03:01.763Z,937.02
2017-04-18T01:04:14.616Z,937.07
2017-04-18T01:05:27.488Z,937.04
2017-04-18T01:06:40.369Z,937.05
2017-04-18T01:07:53.251Z,937.03
2017-04-18T01:09:05.824Z,937.02
2017-04-18T01:10:18.736Z,937.03
2017-04-18T01:11:31.735Z,937.04
2017-04-18T01:12:44.801Z,936.99
2017-04-18T01:13:57.185Z,937.02
2017-04-18T01:15:09.554Z,937.03
2017-04-18T01:16:22.433Z,937.06
2017-04-18T01:17:34.830Z,937.04
2017-04-18T01:18:47.210Z,937.09
2017-04-18T01:19:59.603Z,937.08
2017-04-18T01:21:12.467Z,937.09
2017-04-18T01:22:25.336Z,937.06
2017-04-18T01:23:38.207Z,937.08
2017-04-18T01:24:51.083Z,937.03
2017-04-18T01:26:03.966Z,937.04
2017-04-18T01:27:16.336Z,937.03
2017-04-18T01:28:29.207Z,937.04
2017-04-18T01:29:42.211Z,937.02
2017-04-18T01:30:55.091Z,937.01
2017-04-18T01:32:07.943Z,937.02
2017-04-18T01:33:20.816Z,937.04
2017-04-18T01:34:33.692Z,937.03
2017-04-18T01:35:46.682Z,937.09
2017-04-18T01:37:13.139Z,937.07
2017-04-18T01:38:26.010Z,937.04
2017-04-18T01:39:38.911Z,937.03
2017-04-18T01:40:51.327Z,937.02
2017-04-18T01:42:04.194Z,936.99
2017-04-18T01:43:17.174Z,936.98
2017-04-18T01:44:30.257Z,936.95
2017-04-18T01:45:43.154Z,936.91
2017-04-18T01:46:56.030Z,936.88
2017-04-18T01:48:08.904Z,936.9
2017-04-18T01:49:21.758Z,936.9
2017-04-18T01:50:34.642Z,936.87
2017-04-18T01:51:47.020Z,936.85
2017-04-18T01:53:00.117Z,936.8
2017-04-18T01:54:12.990Z,936.75
2017-04-18T01:55:25.857Z,936.76
2017-04-18T01:56:38.744Z,936.82
2017-04-18T01:57:51.607Z,936.84
2017-04-18T01:59:04.457Z,936.78
2017-04-18T02:00:17.481Z,936.78
2017-04-18T02:01:29.873Z,936.74
2017-04-18T02:02:42.752Z,936.77
2017-04-18T02:03:55.558Z,936.72
2017-04-18T02:05:08.431Z,936.7
2017-04-18T02:06:21.290Z,936.71
2017-04-18T02:07:34.168Z,936.67
2017-04-18T02:08:47.250Z,936.7
2017-04-18T02:09:59.646Z,936.73
2017-04-18T02:11:12.518Z,936.76
2017-04-18T02:12:25.397Z,936.74
2017-04-18T02:13:38.278Z,936.74
2017-04-18T02:14:50.873Z,936.74
2017-04-18T02:16:03.766Z,936.77
2017-04-18T02:17:16.620Z,936.73
2017-04-18T02:18:29.494Z,936.74
2017-04-18T02:19:41.882Z,936.76
2017-04-18T02:20:54.297Z,936.75
2017-04-18T02:22:07.173Z,936.75
2017-04-18T02:23:20.059Z,936.76
2017-04-18T02:24:32.921Z,936.76
2017-04-18T02:25:46.016Z,936.76
2017-04-18T02:26:58.893Z,936.77
2017-04-18T02:28:11.754Z,936.76
2017-04-18T02:29:24.157Z,936.76
2017-04-18T02:32:03.930Z,936.77
2017-04-18T02:33:16.768Z,936.78
2017-04-18T02:34:29.039Z,936.82
2017-04-18T02:35:42.168Z,936.82
2017-04-18T02:36:55.020Z,936.81
2017-04-18T02:38:07.846Z,936.75
2017-04-18T02:39:20.577Z,936.81
2017-04-18T02:40:33.293Z,936.81
2017-04-18T02:41:46.016Z,936.88
2017-04-18T02:42:58.765Z,936.87
2017-04-18T02:44:11.504Z,936.87
2017-04-18T02:45:24.271Z,936.85
2017-04-18T02:48:03.840Z,936.9
2017-04-18T02:49:16.802Z,936.84
2017-04-18T02:50:29.537Z,936.84
2017-04-18T02:51:42.405Z,936.88
2017-04-18T02:52:55.134Z,936.94
2017-04-18T02:54:07.886Z,936.89
2017-04-18T02:55:20.609Z,936.91
2017-04-18T02:56:33.349Z,936.88
2017-04-18T02:57:46.272Z,936.87
2017-04-18T02:58:59.000Z,936.86
2017-04-18T03:00:11.937Z,936.87
2017-04-18T03:01:24.656Z,936.86
2017-04-18T03:02:36.905Z,936.81
2017-04-18T03:03:49.620Z,936.81
2017-04-18T03:05:02.332Z,936.75
2017-04-18T03:06:15.053Z,936.76
2017-04-18T03:07:27.883Z,936.72
2017-04-18T03:08:40.597Z,936.67
2017-04-18T03:09:53.448Z,936.66
2017-04-18T03:11:06.175Z,936.64
2017-04-18T03:12:18.903Z,936.62
2017-04-18T03:13:31.823Z,936.67
2017-04-18T03:14:44.546Z,936.72
2017-04-18T03:15:57.286Z,936.71
2017-04-18T03:17:10.622Z,936.72
2017-04-18T03:18:23.349Z,936.77
2017-04-18T03:19:36.226Z,936.77
2017-04-18T03:20:49.088Z,936.79
2017-04-18T03:22:01.962Z,936.74
2017-04-18T03:23:14.831Z,936.77
2017-04-18T03:24:27.389Z,936.71
2017-04-18T03:25:39.768Z,936.67
2017-04-18T03:26:52.633Z,936.62
2017-04-18T03:28:05.501Z,936.67
2017-04-18T03:29:17.882Z,936.63
2017-04-18T03:30:31.047Z,936.66
2017-04-18T03:31:43.919Z,936.67
2017-04-18T03:32:56.781Z,936.63
2017-04-18T03:34:09.634Z,936.62
2017-04-18T03:35:22.498Z,936.64
2017-04-18T03:36:35.357Z,936.66
2017-04-18T03:37:47.738Z,936.61
2017-04-18T03:39:00.574Z,936.62
2017-04-18T03:40:13.439Z,936.64
2017-04-18T03:41:27.407Z,936.65
2017-04-18T03:42:40.249Z,936.69
2017-04-18T03:43:53.327Z,936.66
2017-04-18T03:45:06.212Z,936.68
2017-04-18T03:47:45.462Z,936.72
2017-04-18T03:48:57.825Z,936.72
2017-04-18T03:50:10.663Z,936.69
2017-04-18T03:51:23.502Z,936.64
2017-04-18T03:52:36.327Z,936.62
2017-04-18T03:53:49.169Z,936.64
2017-04-18T03:55:02.034Z,936.64
2017-04-18T03:56:14.864Z,936.65
2017-04-18T03:57:27.694Z,936.62
2017-04-18T03:58:40.524Z,936.62
2017-04-18T03:59:52.935Z,936.6
2017-04-18T04:01:05.765Z,936.58
2017-04-18T04:02:18.893Z,936.58
2017-04-18T04:03:31.701Z,936.54
2017-04-18T04:04:44.423Z,936.54
2017-04-18T04:05:56.634Z,936.52
2017-04-18T04:07:08.849Z,936.49
2017-04-18T04:08:21.536Z,936.46
2017-04-18T04:09:34.224Z,936.49
2017-04-18T04:10:46.909Z,936.46
2017-04-18T04:11:59.591Z,936.44
2017-04-18T04:13:12.578Z,936.47
2017-04-18T04:14:24.792Z,936.41
2017-04-18T04:15:37.485Z,936.41
2017-04-18T04:16:50.173Z,936.4
2017-04-18T04:18:03.022Z,936.38
2017-04-18T04:19:15.911Z,936.4
2017-04-18T04:20:28.592Z,936.39
2017-04-18T04:21:41.293Z,936.38
2017-04-18T04:22:53.984Z,936.35
2017-04-18T04:24:06.677Z,936.37
2017-04-18T04:25:19.365Z,936.37
2017-04-18T04:26:32.052Z,936.29
2017-04-18T04:27:44.267Z,936.29
2017-04-18T04:28:56.956Z,936.28
2017-04-18T04:30:09.848Z,936.23
2017-04-18T04:31:22.535Z,936.23
2017-04-18T04:32:35.224Z,936.27
2017-04-18T04:33:47.915Z,936.23
2017-04-18T04:35:00.619Z,936.22
2017-04-18T04:36:13.042Z,936.22
2017-04-18T04:37:25.728Z,936.19
2017-04-18T04:38:38.640Z,936.18
2017-04-18T04:39:51.331Z,936.18
2017-04-18T04:41:03.890Z,936.16
2017-04-18T04:42:16.575Z,936.14
2017-04-18T04:43:28.788Z,936.13
2017-04-18T04:44:41.472Z,936.13
2017-04-18T04:45:54.356Z,936.13
2017-04-18T04:47:07.043Z,936.14
2017-04-18T04:48:19.727Z,936.15
2017-04-18T04:49:32.417Z,936.14
2017-04-18T04:50:44.626Z,936.13
2017-04-18T04:51:57.514Z,936.14
2017-04-18T04:53:09.724Z,936.16
2017-04-18T04:54:22.221Z,936.1
2017-04-18T04:55:34.907Z,936.11
2017-04-18T04:56:47.596Z,936.1
2017-04-18T04:58:00.335Z,936.07
2017-04-18T04:59:13.042Z,936.05
2017-04-18T05:00:25.731Z,936.02
2017-04-18T05:01:38.421Z,936.07
2017-04-18T05:03:05.198Z,936.01
2017-04-18T05:04:16.936Z,936
2017-04-18T05:05:29.624Z,935.99
2017-04-18T05:06:42.310Z,935.99
2017-04-18T05:07:54.517Z,935.99
2017-04-18T05:09:07.236Z,935.96
2017-04-18T05:10:19.943Z,935.94
2017-04-18T05:11:32.712Z,935.9
2017-04-18T05:12:45.474Z,935.91
2017-04-18T05:13:58.377Z,935.88
2017-04-18T05:15:11.064Z,935.9
2017-04-18T05:16:23.750Z,935.89
2017-04-18T05:17:36.458Z,935.9
2017-04-18T05:18:49.351Z,935.87
2017-04-18T05:20:02.080Z,935.83
2017-04-18T05:21:14.763Z,935.83
2017-04-18T05:22:27.450Z,935.83
2017-04-18T05:23:40.143Z,935.83
2017-04-18T05:24:52.842Z,935.84
2017-04-18T05:26:05.064Z,935.83
2017-04-18T05:27:17.750Z,935.82
2017-04-18T05:28:30.433Z,935.8
2017-04-18T05:29:43.427Z,935.78
2017-04-18T05:30:56.116Z,935.79
2017-04-18T05:32:08.803Z,935.75
2017-04-18T05:33:21.490Z,935.75
2017-04-18T05:34:33.896Z,935.75
2017-04-18T05:35:46.109Z,935.76
2017-04-18T05:36:58.798Z,935.78
2017-04-18T05:38:11.021Z,935.74
2017-04-18T05:39:23.716Z,935.77
2017-04-18T05:40:36.396Z,935.75
2017-04-18T05:41:49.084Z,935.7
2017-04-18T05:43:01.293Z,935.7
2017-04-18T05:44:13.504Z,935.66
2017-04-18T05:45:26.193Z,935.61
2017-04-18T05:46:38.876Z,935.63
2017-04-18T05:47:51.088Z,935.61
2017-04-18T05:49:03.773Z,935.61
2017-04-18T05:50:16.456Z,935.58
2017-04-18T05:51:29.141Z,935.54
2017-04-18T05:52:41.824Z,935.55
2017-04-18T05:53:54.513Z,935.51
2017-04-18T05:55:07.212Z,935.5
2017-04-18T05:56:19.424Z,935.49
2017-04-18T05:57:32.415Z,935.41
2017-04-18T05:58:44.170Z,935.4
2017-04-18T05:59:56.860Z,935.4
2017-04-18T06:01:09.093Z,935.38
2017-04-18T06:02:20.830Z,935.37
2017-04-18T06:03:33.523Z,935.35
2017-04-18T06:04:45.735Z,935.34
2017-04-18T06:05:58.426Z,935.34
2017-04-18T06:07:10.640Z,935.36
2017-04-18T06:08:23.052Z,935.37
2017-04-18T06:09:35.743Z,935.36
2017-04-18T06:10:48.435Z,935.37
2017-04-18T06:12:01.129Z,935.4
2017-04-18T06:13:13.644Z,935.38
2017-04-18T06:14:26.332Z,935.39
2017-04-18T06:15:39.020Z,935.4
2017-04-18T06:16:51.711Z,935.39
2017-04-18T06:18:04.434Z,935.36
2017-04-18T06:19:17.322Z,935.38
2017-04-18T06:20:30.037Z,935.34
2017-04-18T06:21:42.757Z,935.35
2017-04-18T06:22:54.965Z,935.36
2017-04-18T06:24:07.889Z,935.39
2017-04-18T06:25:20.100Z,935.41
2017-04-18T06:26:32.785Z,935.41
2017-04-18T06:27:44.998Z,935.37
2017-04-18T06:28:57.695Z,935.37
2017-04-18T06:30:10.580Z,935.38
2017-04-18T06:31:23.265Z,935.41
2017-04-18T06:32:33.574Z,935.4
2017-04-18T06:33:46.266Z,935.41
2017-04-18T06:34:59.255Z,935.44
2017-04-18T06:36:11.945Z,935.41
2017-04-18T06:37:24.630Z,935.4
2017-04-18T06:38:37.317Z,935.36
2017-04-18T06:39:50.007Z,935.34
2017-04-18T06:41:02.575Z,935.32
2017-04-18T06:42:15.258Z,935.34
2017-04-18T06:43:27.944Z,935.34
2017-04-18T06:44:40.638Z,935.32
2017-04-18T06:45:53.524Z,935.28
2017-04-18T06:47:05.737Z,935.29
2017-04-18T06:48:17.947Z,935.25
2017-04-18T06:49:30.634Z,935.27
2017-04-18T06:50:43.325Z,935.25
2017-04-18T06:51:55.835Z,935.25
2017-04-18T06:53:06.142Z,935.31
2017-04-18T06:54:18.832Z,935.3
2017-04-18T06:55:31.514Z,935.31
2017-04-18T06:56:44.503Z,935.3
2017-04-18T06:57:56.714Z,935.34
2017-04-18T06:59:08.454Z,935.32
2017-04-18T07:00:21.138Z,935.32
2017-04-18T07:01:33.822Z,935.29
2017-04-18T07:02:45.098Z,935.33
2017-04-18T07:03:58.176Z,935.31
2017-04-18T07:05:10.517Z,935.29
2017-04-18T07:06:23.342Z,935.3
2017-04-18T07:07:36.162Z,935.26
2017-04-18T07:08:48.992Z,935.26
2017-04-18T07:10:01.809Z,935.24
2017-04-18T07:11:14.644Z,935.24
2017-04-18T07:12:26.499Z,935.22
2017-04-18T07:13:37.202Z,935.23
2017-04-18T07:14:50.036Z,935.2
2017-04-18T07:16:02.869Z,935.2
2017-04-18T07:17:15.691Z,935.21
2017-04-18T07:18:28.029Z,935.23
2017-04-18T07:19:40.861Z,935.21
2017-04-18T07:20:53.685Z,935.24
2017-04-18T07:22:06.512Z,935.24
2017-04-18T07:23:17.931Z,935.25
2017-04-18T07:24:28.841Z,935.26
2017-04-18T07:25:41.907Z,935.27
2017-04-18T07:26:54.730Z,935.24
2017-04-18T07:28:07.555Z,935.25
2017-04-18T07:29:18.444Z,935.23
2017-04-18T07:30:31.571Z,935.28
2017-04-18T07:31:44.393Z,935.23
2017-04-18T07:32:54.788Z,935.23
2017-04-18T07:34:05.187Z,935.25
2017-04-18T07:35:16.869Z,935.25
2017-04-18T07:36:29.696Z,935.27
2017-04-18T07:37:42.519Z,935.3
2017-04-18T07:38:54.876Z,935.32
2017-04-18T07:40:07.214Z,935.31
2017-04-18T07:41:33.134Z,935.31
2017-04-18T07:42:44.532Z,935.34
2017-04-18T07:43:54.941Z,935.36
2017-04-18T07:45:05.893Z,935.36
2017-04-18T07:46:17.968Z,935.38
2017-04-18T07:47:28.852Z,935.39
2017-04-18T07:48:41.574Z,935.4
2017-04-18T07:49:53.310Z,935.44
2017-04-18T07:51:05.043Z,935.46
2017-04-18T07:52:17.452Z,935.49
2017-04-18T07:53:27.757Z,935.52
2017-04-18T07:54:39.052Z,935.53
2017-04-18T07:55:50.310Z,935.55
2017-04-18T07:57:00.616Z,935.57
2017-04-18T07:58:12.174Z,935.55
2017-04-18T07:59:23.914Z,935.57
2017-04-18T08:00:36.146Z,935.55
2017-04-18T08:01:48.828Z,935.55
2017-04-18T08:03:00.577Z,935.53
2017-04-18T08:04:13.116Z,935.54
2017-04-18T08:05:24.845Z,935.59
2017-04-18T08:06:36.581Z,935.62
2017-04-18T08:07:48.320Z,935.63
2017-04-18T08:09:01.023Z,935.66
2017-04-18T08:10:13.707Z,935.67
2017-04-18T08:11:25.443Z,935.71
2017-04-18T08:12:37.654Z,935.7
2017-04-18T08:13:48.918Z,935.72
2017-04-18T08:15:01.605Z,935.72
2017-04-18T08:16:12.864Z,935.74
2017-04-18T08:17:25.070Z,935.73
2017-04-18T08:18:36.333Z,935.73
2017-04-18T08:19:49.027Z,935.72
2017-04-18T08:21:00.767Z,935.72
2017-04-18T08:22:13.178Z,935.69
2017-04-18T08:23:24.948Z,935.68
2017-04-18T08:24:36.689Z,935.63
2017-04-18T08:25:48.900Z,935.64
2017-04-18T08:27:01.107Z,935.63
2017-04-18T08:28:13.038Z,935.7
2017-04-18T08:29:24.777Z,935.71
2017-04-18T08:30:36.515Z,935.7
2017-04-18T08:31:48.726Z,935.75
2017-04-18T08:33:00.951Z,935.77
2017-04-18T08:34:13.788Z,935.79
2017-04-18T08:35:26.130Z,935.82
2017-04-18T08:36:38.467Z,935.81
2017-04-18T08:37:50.827Z,935.83
2017-04-18T08:39:03.657Z,935.8
2017-04-18T08:40:16.194Z,935.83
2017-04-18T08:41:28.047Z,935.82
2017-04-18T08:42:40.386Z,935.84
2017-04-18T08:43:53.208Z,935.9
2017-04-18T08:45:06.027Z,935.9
2017-04-18T08:46:17.877Z,935.93
2017-04-18T08:47:30.241Z,935.97
2017-04-18T08:48:43.076Z,935.96
2017-04-18T08:49:54.939Z,936.01
2017-04-18T08:51:07.276Z,936.02
2017-04-18T08:52:19.614Z,936.03
2017-04-18T08:53:30.993Z,936.08
2017-04-18T08:54:41.427Z,936.01
2017-04-18T08:55:53.294Z,936.05
2017-04-18T08:57:04.229Z,936.05
2017-04-18T08:58:15.130Z,936.05
2017-04-18T08:59:25.649Z,936.04
2017-04-18T09:00:37.991Z,936.05
2017-04-18T09:01:48.870Z,936.05
2017-04-18T09:03:00.722Z,936.07
2017-04-18T09:04:13.061Z,936.07
2017-04-18T09:05:24.912Z,936.11
2017-04-18T09:06:37.251Z,936.16
2017-04-18T09:07:49.589Z,936.24
2017-04-18T09:09:02.415Z,936.24
2017-04-18T09:10:15.240Z,936.27
2017-04-18T09:11:28.064Z,936.31
2017-04-18T09:12:40.398Z,936.31
2017-04-18T09:13:53.221Z,936.34
2017-04-18T09:15:05.807Z,936.37
2017-04-18T09:16:18.632Z,936.34
2017-04-18T09:17:31.454Z,936.41
2017-04-18T09:18:43.670Z,936.36
2017-04-18T09:19:56.357Z,936.41
2017-04-18T09:21:08.567Z,936.45
2017-04-18T09:22:21.254Z,936.45
2017-04-18T09:23:33.940Z,936.45
2017-04-18T09:24:46.625Z,936.47
2017-04-18T09:25:57.891Z,936.47
2017-04-18T09:27:10.096Z,936.46
2017-04-18T09:28:22.305Z,936.46
2017-04-18T09:29:34.995Z,936.52
2017-04-18T09:30:47.880Z,936.52
2017-04-18T09:32:00.573Z,936.52
2017-04-18T09:33:12.870Z,936.5
2017-04-18T09:34:25.086Z,936.48
2017-04-18T09:35:37.773Z,936.54
2017-04-18T09:36:49.707Z,936.5
2017-04-18T09:38:01.915Z,936.53
2017-04-18T09:39:14.603Z,936.54
2017-04-18T09:40:26.347Z,936.57
2017-04-18T09:41:38.752Z,936.68
2017-04-18T09:42:51.434Z,936.63
2017-04-18T09:44:03.647Z,936.67
2017-04-18T09:45:15.860Z,936.74
2017-04-18T09:46:28.548Z,936.71
2017-04-18T09:47:40.617Z,936.73
2017-04-18T09:48:52.364Z,936.75
2017-04-18T09:50:05.054Z,936.76
2017-04-18T09:51:17.752Z,936.81
2017-04-18T09:52:29.960Z,936.84
2017-04-18T09:53:42.646Z,936.89
2017-04-18T09:54:55.330Z,936.91
2017-04-18T09:56:07.553Z,936.94
2017-04-18T09:57:20.241Z,936.94
2017-04-18T09:58:32.449Z,936.92
2017-04-18T09:59:44.672Z,936.96
2017-04-18T10:00:56.880Z,936.98
2017-04-18T10:02:09.564Z,937.02
2017-04-18T10:04:49.026Z,937.04
2017-04-18T10:06:01.235Z,937.05
2017-04-18T10:07:13.454Z,937
2017-04-18T10:08:24.915Z,937.06
2017-04-18T10:09:37.126Z,937.07
2017-04-18T10:10:49.810Z,937.09
2017-04-18T10:12:02.023Z,937.12
2017-04-18T10:13:14.707Z,937.1
2017-04-18T10:14:26.638Z,937.13
2017-04-18T10:15:38.854Z,937.14
2017-04-18T10:16:51.065Z,937.24
2017-04-18T10:18:03.816Z,937.23
2017-04-18T10:19:16.235Z,937.27
2017-04-18T10:20:28.936Z,937.24
2017-04-18T10:21:41.146Z,937.28
2017-04-18T10:22:53.831Z,937.35
2017-04-18T10:24:06.045Z,937.38
2017-04-18T10:25:19.030Z,937.38
2017-04-18T10:26:31.721Z,937.44
2017-04-18T10:27:43.934Z,937.44
2017-04-18T10:28:56.624Z,937.42
2017-04-18T10:30:09.513Z,937.42
2017-04-18T10:31:22.206Z,937.4
2017-04-18T10:32:34.894Z,937.43
2017-04-18T10:33:47.105Z,937.51
2017-04-18T10:34:59.376Z,937.5
2017-04-18T10:36:12.068Z,937.56
2017-04-18T10:37:24.753Z,937.57
2017-04-18T10:38:36.960Z,937.51
2017-04-18T10:39:49.175Z,937.5
2017-04-18T10:41:02.069Z,937.52
2017-04-18T10:42:14.767Z,937.59
2017-04-18T10:43:27.003Z,937.61
2017-04-18T10:44:39.688Z,937.61
2017-04-18T10:45:51.905Z,937.63
2017-04-18T10:47:04.117Z,937.65
2017-04-18T10:48:16.335Z,937.65
2017-04-18T10:49:28.549Z,937.73
2017-04-18T10:50:40.287Z,937.71
2017-04-18T10:51:52.225Z,937.77
2017-04-18T10:53:04.925Z,937.77
2017-04-18T10:54:17.860Z,937.81
2017-04-18T10:55:30.126Z,937.82
2017-04-18T10:56:42.825Z,937.87
2017-04-18T10:58:09.606Z,937.86
2017-04-18T10:59:22.305Z,937.86
2017-04-18T11:00:34.530Z,937.94
2017-04-18T11:01:46.762Z,937.95
2017-04-18T11:02:59.466Z,937.92
2017-04-18T11:04:11.741Z,937.96
2017-04-18T11:05:24.053Z,937.94
2017-04-18T11:06:36.817Z,938
2017-04-18T11:07:49.100Z,937.99
2017-04-18T11:09:01.446Z,937.97
2017-04-18T11:10:13.841Z,938.06
2017-04-18T11:11:25.575Z,938.08
2017-04-18T11:12:37.784Z,938.05
2017-04-18T11:13:50.671Z,938.08
2017-04-18T11:15:03.360Z,938.1
2017-04-18T11:16:15.583Z,938.11
2017-04-18T11:17:27.794Z,938.07
2017-04-18T11:18:40.484Z,938.11
2017-04-18T11:19:53.180Z,938.11
2017-04-18T11:21:04.918Z,938.11
2017-04-18T11:22:17.607Z,938.15
2017-04-18T11:23:30.298Z,938.13
2017-04-18T11:24:42.510Z,938.2
2017-04-18T11:25:54.249Z,938.2
2017-04-18T11:27:05.995Z,938.24
2017-04-18T11:28:18.686Z,938.23
2017-04-18T11:29:31.480Z,938.25
2017-04-18T11:30:43.696Z,938.3
2017-04-18T11:31:55.444Z,938.3
2017-04-18T11:33:08.190Z,938.34
2017-04-18T11:34:21.125Z,938.27
2017-04-18T11:35:34.093Z,938.34
2017-04-18T11:36:46.765Z,938.37
2017-04-18T11:37:59.753Z,938.33
2017-04-18T11:39:12.892Z,938.34
2017-04-18T11:40:25.431Z,938.32
2017-04-18T11:41:37.769Z,938.35
2017-04-18T11:42:50.704Z,938.39
2017-04-18T11:44:03.040Z,938.43
2017-04-18T11:45:15.869Z,938.47
2017-04-18T11:46:28.428Z,938.55
2017-04-18T11:47:40.767Z,938.56
2017-04-18T11:48:52.138Z,938.56
2017-04-18T11:50:04.486Z,938.59
2017-04-18T11:51:17.304Z,938.66
2017-04-18T11:52:29.649Z,938.62
2017-04-18T11:53:41.988Z,938.66
2017-04-18T11:54:53.844Z,938.66
2017-04-18T11:56:05.695Z,938.66
2017-04-18T11:57:18.516Z,938.66
2017-04-18T11:58:30.378Z,938.71
2017-04-18T11:59:42.721Z,938.72
2017-04-18T12:00:55.545Z,938.74
2017-04-18T12:02:08.375Z,938.69
2017-04-18T12:03:21.326Z,938.74
2017-04-18T12:04:33.665Z,938.73
2017-04-18T12:05:45.536Z,938.75
2017-04-18T12:06:58.354Z,938.78
2017-04-18T12:08:10.694Z,938.78
2017-04-18T12:09:22.749Z,938.8
2017-04-18T12:10:34.603Z,938.79
2017-04-18T12:11:46.941Z,938.88
2017-04-18T12:12:59.767Z,938.88
2017-04-18T12:14:12.614Z,938.86
2017-04-18T12:16:52.341Z,938.88
2017-04-18T12:18:05.249Z,938.9
2017-04-18T12:19:16.983Z,938.94
2017-04-18T12:20:29.499Z,938.89
2017-04-18T12:21:41.727Z,938.87
2017-04-18T12:22:53.995Z,938.89
2017-04-18T12:24:05.745Z,938.88
2017-04-18T12:25:18.253Z,938.85
2017-04-18T12:26:30.942Z,938.89
2017-04-18T12:27:43.177Z,938.88
2017-04-18T12:28:55.388Z,938.92
2017-04-18T12:30:08.076Z,938.94
2017-04-18T12:31:19.812Z,938.92
2017-04-18T12:32:32.019Z,938.97
2017-04-18T12:33:43.761Z,938.96
2017-04-18T12:34:56.464Z,938.98
2017-04-18T12:36:09.502Z,938.97
2017-04-18T12:37:21.713Z,938.97
2017-04-18T12:38:33.936Z,939.02
2017-04-18T12:39:46.170Z,939.05
2017-04-18T12:40:58.855Z,939.03
2017-04-18T12:42:11.741Z,939.02
2017-04-18T12:44:49.308Z,939.11
2017-04-18T12:46:02.013Z,939.13
2017-04-18T12:47:14.525Z,939.03
2017-04-18T12:48:27.222Z,939.03
2017-04-18T12:49:39.442Z,939.06
2017-04-18T12:50:52.135Z,939.09
2017-04-18T12:52:04.346Z,939.05
2017-04-18T12:53:15.626Z,938.99
2017-04-18T12:54:27.844Z,938.99
2017-04-18T12:55:40.060Z,938.96
2017-04-18T12:56:52.271Z,939.02
2017-04-18T12:58:04.491Z,938.95
2017-04-18T12:59:17.173Z,939.02
2017-04-18T13:00:29.383Z,939.03
2017-04-18T13:01:41.597Z,939
2017-04-18T13:02:54.395Z,938.9
2017-04-18T13:04:04.706Z,938.87
2017-04-18T13:05:16.025Z,938.83
2017-04-18T13:06:28.715Z,938.88
2017-04-18T13:07:40.927Z,938.87
2017-04-18T13:08:53.136Z,938.9
2017-04-18T13:10:05.653Z,938.84
2017-04-18T13:11:18.342Z,938.78
2017-04-18T13:12:30.552Z,938.81
2017-04-18T13:13:41.832Z,938.83
2017-04-18T13:14:54.042Z,938.84
2017-04-18T13:16:06.933Z,938.89
2017-04-18T13:17:17.725Z,938.87
2017-04-18T13:18:29.943Z,938.87
2017-04-18T13:19:41.206Z,938.85
2017-04-18T13:20:54.117Z,938.83
2017-04-18T13:22:06.326Z,938.83
2017-04-18T13:23:17.591Z,938.81
2017-04-18T13:24:27.912Z,938.85
2017-04-18T13:25:40.595Z,938.82
2017-04-18T13:26:53.310Z,938.82
2017-04-18T13:28:04.569Z,938.79
2017-04-18T13:29:16.313Z,938.83
2017-04-18T13:30:28.059Z,938.79
2017-04-18T13:31:40.752Z,938.77
2017-04-18T13:32:53.445Z,938.73
2017-04-18T13:34:05.498Z,938.76
2017-04-18T13:35:17.250Z,938.69
2017-04-18T13:36:29.513Z,938.68
2017-04-18T13:37:41.250Z,938.68
2017-04-18T13:38:53.948Z,938.69
2017-04-18T13:40:06.197Z,938.67
2017-04-18T13:41:17.938Z,938.6
2017-04-18T13:42:30.156Z,938.66
2017-04-18T13:43:40.485Z,938.61
2017-04-18T13:44:51.771Z,938.61
2017-04-18T13:47:28.903Z,938.61
2017-04-18T13:48:41.741Z,938.53
2017-04-18T13:49:54.090Z,938.52
2017-04-18T13:51:07.087Z,938.57
2017-04-18T13:52:19.931Z,938.56
2017-04-18T13:53:31.538Z,938.59
2017-04-18T13:54:42.933Z,938.59
2017-04-18T13:55:53.354Z,938.57
2017-04-18T13:57:05.335Z,938.57
2017-04-18T13:58:16.747Z,938.61
2017-04-18T13:59:29.579Z,938.53
2017-04-18T14:00:41.926Z,938.56
2017-04-18T14:01:54.763Z,938.51
2017-04-18T14:03:06.632Z,938.53
2017-04-18T14:04:17.051Z,938.54
2017-04-18T14:05:27.959Z,938.52
2017-04-18T14:06:38.972Z,938.52
2017-04-18T14:07:50.385Z,938.48
2017-04-18T14:09:00.833Z,938.46
2017-04-18T14:10:13.846Z,938.44
2017-04-18T14:11:26.705Z,938.45
2017-04-18T14:12:39.572Z,938.49
2017-04-18T14:13:52.008Z,938.49
2017-04-18T14:15:04.504Z,938.46
2017-04-18T14:16:16.499Z,938.32
2017-04-18T14:17:28.887Z,938.32
2017-04-18T14:18:41.236Z,938.29
2017-04-18T14:19:54.067Z,938.36
2017-04-18T14:21:05.929Z,938.39
2017-04-18T14:22:18.753Z,938.4
2017-04-18T14:23:31.582Z,938.44
2017-04-18T14:24:44.415Z,938.44
2017-04-18T14:25:57.318Z,938.45
2017-04-18T14:27:09.659Z,938.42
2017-04-18T14:28:22.483Z,938.47
2017-04-18T14:29:35.306Z,938.49
2017-04-18T14:30:48.136Z,938.47
2017-04-18T14:32:00.964Z,938.39
2017-04-18T14:33:13.788Z,938.44
2017-04-18T14:34:26.611Z,938.38
2017-04-18T14:35:39.748Z,938.42
2017-04-18T14:36:52.579Z,938.39
2017-04-18T14:38:04.948Z,938.24
2017-04-18T14:39:17.778Z,938.28
2017-04-18T14:40:30.812Z,938.26
2017-04-18T14:41:43.156Z,938.18
2017-04-18T14:42:55.996Z,938.18
2017-04-18T14:44:08.335Z,938.15
2017-04-18T14:45:21.199Z,938.17
2017-04-18T14:46:48.093Z,938.18
2017-04-18T14:48:00.923Z,938.23
2017-04-18T14:49:13.749Z,938.21
2017-04-18T14:50:26.088Z,938.18
2017-04-18T14:51:38.428Z,938.2
2017-04-18T14:52:51.266Z,938.21
2017-04-18T14:54:03.651Z,938.14
2017-04-18T14:55:16.485Z,938.1
2017-04-18T14:56:29.315Z,938.14
2017-04-18T14:57:42.140Z,938.16
2017-04-18T14:58:54.967Z,938.17
2017-04-18T15:00:07.797Z,938.16
2017-04-18T15:01:20.620Z,938.19
2017-04-18T15:02:33.444Z,938.18
2017-04-18T15:03:46.272Z,938.19
2017-04-18T15:04:59.109Z,938.18
2017-04-18T15:06:11.940Z,938.18
2017-04-18T15:07:24.971Z,938.18
2017-04-18T15:08:37.820Z,938.16
2017-04-18T15:09:50.867Z,938.15
2017-04-18T15:11:03.203Z,938.14
2017-04-18T15:12:16.026Z,938.13
2017-04-18T15:13:28.858Z,938.14
2017-04-18T15:14:41.680Z,938.16
2017-04-18T15:15:54.016Z,938.15
2017-04-18T15:17:06.839Z,938.14
2017-04-18T15:18:19.874Z,938.13
2017-04-18T15:19:32.699Z,938.12